Decoded Metar for KTOL (TOLEDO in OH, USA) (IATA:TOL) | Meteo·Mobile Aviation Weather
aviador You're here:

KTOL Decoded Metar

TOLEDO in OH, USA
Report Time2019-06-17 07:21:00
UTC Time2019-06-17 07:29:23
Flight Rules ifr IFR
Wind060° at 03 kt
W.Decomp.*RWY 07: 3.0 kt HW 0.3 kt LCW
RWY 34: 0.3 kt HW 3.0 kt RCW
Visibility9999 m
Phenomena:N/A
Clouds:Overcast 008 Hf
Expected CloudBase > 1,200 ft AGL from Temp-Dew spread
Ceiling800 ft
Temp17°C (ISA +3)
Dew Point14°C (83% RH)
QNH1014 hPa
Density Alt1,266 ft
Elevation689 ft
Report Wrong Elevation
Raw Report
KTOL 170721Z 06003KT 10SM OVC008 17/14 A2993=

Extra information for KTOL:More info

Metar Taf Metar & Taf Last 4 Metars F.Rules Stats Wind Profile Meteogram Temp Stats Airport Information Weather charts Add Link Nearby VenuesMetar ALERT Operation Metar Decoded Social comments

AIRNAV info for KTOL